Time;durP1;ratioP1;P1;durP2;ratioP2;P2;SDS_P1;SDS_P2;PMS_P1;PMS_P2;Temp;Humidity;BMP_temperature;BMP_pressure;BME280_temperature;BME280_humidity;BME280_pressure;Samples;Min_cycle;Max_cycle;Signal;HPM_P1;HPM_P2
2023/10/22 00:00:52;;;;;;;4.07;2.10;;;;;;;13.61;46.09;98697.28;10392341;28;20238;-66
2023/10/22 00:05:53;;;;;;;2.67;1.87;;;;;;;15.70;43.73;98490.78;10395278;28;20697;-67
2023/10/22 00:10:55;;;;;;;3.00;1.97;;;;;;;14.23;45.41;98639.59;10401504;28;20286;-65
2023/10/22 00:15:57;;;;;;;2.67;1.90;;;;;;;15.25;44.35;98507.91;10405646;28;20258;-65
2023/10/22 00:20:58;;;;;;;3.43;2.33;;;;;;;14.64;44.29;98658.44;10408338;28;20232;-64
2023/10/22 00:26:00;;;;;;;3.03;1.90;;;;;;;14.91;44.06;98616.47;10401537;28;20229;-67
2023/10/22 00:31:02;;;;;;;2.50;1.80;;;;;;;14.74;44.04;98653.25;10401002;28;20801;-66
2023/10/22 00:36:04;;;;;;;2.90;1.97;;;;;;;14.47;44.62;98696.06;10398100;28;20547;-66
2023/10/22 00:41:06;;;;;;;4.17;1.97;;;;;;;14.12;45.29;98686.13;10407281;28;20225;-66
2023/10/22 00:46:20;;;;;;;2.37;1.80;;;;;;;14.26;44.61;98727.91;10400735;28;20232;-66
2023/10/22 00:51:22;;;;;;;2.27;1.90;;;;;;;14.64;44.66;98650.38;10404238;28;20255;-67
2023/10/22 00:56:25;;;;;;;1.97;1.60;;;;;;;15.06;44.57;98566.59;10401619;28;20265;-66
2023/10/22 01:01:27;;;;;;;2.43;1.70;;;;;;;14.87;44.65;98626.06;10403867;28;20326;-66
2023/10/22 01:06:30;;;;;;;2.73;1.90;;;;;;;15.20;43.63;98638.00;10406152;28;20736;-66
2023/10/22 01:11:33;;;;;;;2.87;1.73;;;;;;;15.21;43.43;98676.53;10406503;28;20228;-67
2023/10/22 01:16:34;;;;;;;2.47;1.93;;;;;;;14.04;44.96;98749.97;10402314;28;20726;-67
2023/10/22 01:21:36;;;;;;;3.30;2.30;;;;;;;14.47;44.48;98721.09;10403112;28;20244;-66
2023/10/22 01:26:42;;;;;;;3.43;1.90;;;;;;;15.03;43.23;98705.31;10404046;28;20268;-66
2023/10/22 01:31:43;;;;;;;2.87;1.93;;;;;;;14.92;43.90;98673.84;10400300;28;20232;-67
2023/10/22 01:36:45;;;;;;;2.50;1.70;;;;;;;15.58;43.06;98631.09;10404284;28;20343;-66
2023/10/22 01:41:47;;;;;;;2.07;1.70;;;;;;;14.84;43.68;98693.88;10405424;28;20326;-67
2023/10/22 01:46:49;;;;;;;3.20;1.73;;;;;;;14.81;44.13;98713.19;10402694;28;20228;-67
2023/10/22 01:51:50;;;;;;;2.53;1.77;;;;;;;14.02;44.71;98751.28;10403994;28;20729;-66
2023/10/22 01:56:52;;;;;;;2.33;2.03;;;;;;;14.50;44.73;98671.38;10399656;28;20263;-67
2023/10/22 02:01:54;;;;;;;5.10;1.60;;;;;;;13.95;44.95;98772.06;10400967;28;20805;-67
2023/10/22 02:06:55;;;;;;;2.17;1.93;;;;;;;14.06;44.68;98792.81;10402796;28;21052;-67
2023/10/22 02:11:57;;;;;;;3.77;1.97;;;;;;;14.00;45.42;98664.59;10405328;28;20220;-66
2023/10/22 02:16:59;;;;;;;2.53;2.07;;;;;;;14.37;44.80;98693.97;10400098;28;20992;-66
2023/10/22 02:22:01;;;;;;;1.80;1.70;;;;;;;14.20;44.71;98726.16;10408458;28;20723;-67
2023/10/22 02:27:03;;;;;;;2.20;1.80;;;;;;;13.43;45.81;98772.59;10399476;28;20239;-67
2023/10/22 02:32:05;;;;;;;2.67;1.73;;;;;;;14.27;45.09;98651.50;10405539;28;20264;-67
2023/10/22 02:37:08;;;;;;;4.50;2.07;;;;;;;14.57;44.44;98694.38;10398553;28;20636;-67
2023/10/22 02:42:09;;;;;;;3.87;2.33;;;;;;;14.10;45.09;98688.25;10399894;28;20282;-67
2023/10/22 02:47:11;;;;;;;3.10;1.70;;;;;;;13.16;46.67;98762.22;10404497;28;20242;-67
2023/10/22 02:52:13;;;;;;;2.87;1.87;;;;;;;14.24;45.41;98703.13;10410527;28;20618;-66
2023/10/22 02:57:14;;;;;;;2.97;2.20;;;;;;;14.80;44.82;98636.16;10400898;28;20319;-66
2023/10/22 03:02:16;;;;;;;2.30;2.00;;;;;;;14.52;44.81;98688.91;10398000;28;20240;-67
2023/10/22 03:07:18;;;;;;;2.63;1.90;;;;;;;13.80;45.90;98802.91;10404869;28;20237;-66
2023/10/22 03:12:20;;;;;;;6.47;3.27;;;;;;;14.52;44.65;98766.16;10414304;28;20239;-66
2023/10/22 03:17:22;;;;;;;2.13;1.93;;;;;;;14.90;44.42;98706.41;10402923;28;20335;-67
2023/10/22 03:22:24;;;;;;;2.10;1.83;;;;;;;14.25;45.37;98747.78;10401586;28;20235;-66
2023/10/22 03:27:26;;;;;;;3.33;2.00;;;;;;;13.76;46.15;98765.94;10402977;28;20762;-67
2023/10/22 03:32:27;;;;;;;4.93;2.20;;;;;;;12.35;48.50;98861.50;10404969;28;20287;-67
2023/10/22 03:37:29;;;;;;;5.83;4.03;;;;;;;12.76;48.74;98741.19;10403811;28;20240;-67
2023/10/22 03:42:31;;;;;;;2.73;2.53;;;;;;;14.01;46.30;98691.25;10400018;28;20223;-66
2023/10/22 03:47:32;;;;;;;2.23;2.03;;;;;;;13.28;47.00;98821.41;10403911;28;20297;-67
2023/10/22 03:52:34;;;;;;;2.90;2.20;;;;;;;12.83;48.36;98794.81;10409171;28;20247;-67
2023/10/22 03:57:44;;;;;;;3.10;1.93;;;;;;;13.38;46.97;98772.47;10404935;28;20235;-66
2023/10/22 04:02:46;;;;;;;2.40;1.90;;;;;;;12.84;48.07;98809.88;10411132;28;20335;-66
2023/10/22 04:07:49;;;;;;;2.70;2.33;;;;;;;13.62;46.64;98760.75;10408720;28;20726;-66
2023/10/22 04:12:51;;;;;;;2.87;1.90;;;;;;;13.75;46.46;98793.88;10409757;28;20247;-66
2023/10/22 04:17:53;;;;;;;3.53;2.23;;;;;;;14.17;45.63;98766.97;10405670;28;20228;-66
2023/10/22 04:22:54;;;;;;;2.40;2.20;;;;;;;12.91;47.49;98878.56;10408921;28;20256;-67
2023/10/22 04:27:56;;;;;;;2.80;2.00;;;;;;;13.77;46.90;98751.47;10408533;28;20236;-66
2023/10/22 04:32:58;;;;;;;2.43;1.90;;;;;;;13.66;46.99;98737.72;10404032;28;20468;-66
2023/10/22 04:38:01;;;;;;;2.97;2.43;;;;;;;12.53;49.56;98768.69;10408813;28;20376;-66
2023/10/22 04:43:02;;;;;;;3.87;2.97;;;;;;;13.84;46.81;98722.59;10405281;28;20236;-66
2023/10/22 04:48:04;;;;;;;4.13;2.30;;;;;;;11.70;49.56;98960.06;10407203;28;20650;-66
2023/10/22 04:53:06;;;;;;;2.70;2.00;;;;;;;13.26;48.25;98745.53;10405361;28;20536;-66
2023/10/22 04:58:08;;;;;;;4.87;2.20;;;;;;;13.28;46.82;98872.44;10404088;28;21808;-66
2023/10/22 05:03:10;;;;;;;3.00;2.13;;;;;;;13.70;46.46;98816.09;10404703;28;20753;-65
2023/10/22 05:08:12;;;;;;;2.73;1.93;;;;;;;13.66;46.75;98825.63;10400631;28;20943;-66
2023/10/22 05:13:13;;;;;;;2.30;2.10;;;;;;;13.63;47.53;98766.94;10405084;28;20330;-67
2023/10/22 05:18:16;;;;;;;4.17;2.03;;;;;;;13.74;46.99;98794.94;10401983;28;20821;-66
2023/10/22 05:23:17;;;;;;;2.20;2.00;;;;;;;13.07;47.72;98861.03;10412511;28;20316;-67
2023/10/22 05:28:19;;;;;;;4.03;2.00;;;;;;;13.43;46.48;98867.50;10405404;28;20237;-66
2023/10/22 05:33:21;;;;;;;2.27;2.07;;;;;;;12.92;48.06;98842.63;10408844;28;20913;-66
2023/10/22 05:38:22;;;;;;;2.77;1.90;;;;;;;11.57;49.10;99063.50;10405002;28;20318;-66
2023/10/22 05:43:24;;;;;;;3.50;2.03;;;;;;;13.78;46.50;98844.50;10408434;28;20530;-67
2023/10/22 05:48:26;;;;;;;3.60;1.97;;;;;;;13.39;47.41;98865.47;10409789;28;20821;-67
2023/10/22 05:53:27;;;;;;;3.13;1.80;;;;;;;13.14;47.80;98884.34;10405715;28;20263;-67
2023/10/22 05:58:29;;;;;;;4.50;2.07;;;;;;;13.37;47.42;98870.25;10401720;28;20238;-67
2023/10/22 06:03:31;;;;;;;5.03;2.40;;;;;;;12.96;47.07;99027.44;10404549;28;20246;-67
2023/10/22 06:08:33;;;;;;;4.23;2.00;;;;;;;12.30;49.08;98975.84;10399754;28;20231;-67
2023/10/22 06:13:34;;;;;;;2.73;1.83;;;;;;;13.78;47.12;98857.94;10401207;28;20531;-67
2023/10/22 06:18:36;;;;;;;3.33;1.80;;;;;;;13.29;46.86;98968.94;10397867;28;20807;-67
2023/10/22 06:23:38;;;;;;;2.87;1.63;;;;;;;13.56;46.39;98984.75;10396023;28;20232;-67
2023/10/22 06:28:41;;;;;;;3.23;1.80;;;;;;;14.13;46.20;98935.28;10401725;28;20240;-67
2023/10/22 06:33:43;;;;;;;2.23;1.50;;;;;;;14.83;45.02;98920.34;10400940;28;20224;-67
2023/10/22 06:38:46;;;;;;;2.80;1.67;;;;;;;12.70;47.82;99077.59;10410724;28;20235;-67
2023/10/22 06:43:48;;;;;;;2.60;1.57;;;;;;;13.72;46.92;98969.91;10400832;28;20232;-67
2023/10/22 06:48:50;;;;;;;2.87;1.87;;;;;;;13.65;46.70;99049.81;10400598;28;20338;-67
2023/10/22 06:53:52;;;;;;;1.43;1.40;;;;;;;11.73;49.64;99137.34;10399381;28;20323;-68
2023/10/22 06:58:54;;;;;;;3.73;1.70;;;;;;;12.71;48.13;99109.59;10401624;28;20257;-67
2023/10/22 07:03:55;;;;;;;1.80;1.67;;;;;;;12.91;47.79;99047.72;10401182;28;20247;-67
2023/10/22 07:08:57;;;;;;;3.50;2.00;;;;;;;13.59;46.98;99078.41;10392802;28;20239;-68
2023/10/22 07:13:59;;;;;;;4.73;1.70;;;;;;;14.06;45.97;99051.03;10400184;28;20252;-67
2023/10/22 07:19:00;;;;;;;4.10;1.90;;;;;;;15.16;44.93;99018.66;10395906;28;20315;-67
2023/10/22 07:24:02;;;;;;;5.03;2.30;;;;;;;14.30;45.79;99100.41;10404391;28;20239;-67
2023/10/22 07:29:04;;;;;;;4.30;1.70;;;;;;;16.13;43.35;99020.78;10397089;28;20225;-68
2023/10/22 07:34:06;;;;;;;2.97;2.10;;;;;;;15.86;44.19;99005.13;10409885;28;20242;-68
2023/10/22 07:39:08;;;;;;;7.03;1.97;;;;;;;15.17;44.81;99101.97;10401373;28;20232;-67
2023/10/22 07:44:10;;;;;;;4.10;2.03;;;;;;;14.92;45.90;99065.22;10404864;28;20229;-67
2023/10/22 07:49:12;;;;;;;2.67;1.90;;;;;;;13.31;47.39;99196.25;10400459;28;20225;-67
2023/10/22 07:54:14;;;;;;;6.13;1.87;;;;;;;14.93;45.61;99077.66;10400230;28;20706;-67
2023/10/22 07:59:15;;;;;;;4.07;2.13;;;;;;;15.85;43.92;99051.22;10399309;28;20327;-67
2023/10/22 08:04:17;;;;;;;9.60;2.80;;;;;;;15.92;44.17;99078.06;10403193;28;20245;-68
2023/10/22 08:09:19;;;;;;;3.40;2.30;;;;;;;16.35;43.14;99182.13;10401591;28;20233;-67
2023/10/22 08:14:21;;;;;;;4.63;2.20;;;;;;;14.54;45.57;99198.28;10403456;28;20239;-67
2023/10/22 08:19:22;;;;;;;4.17;2.13;;;;;;;16.41;43.32;99132.56;10409448;28;20333;-66
2023/10/22 08:24:24;;;;;;;5.70;2.10;;;;;;;16.00;43.57;99199.13;10404405;28;20331;-65
2023/10/22 08:29:26;;;;;;;4.00;2.00;;;;;;;15.58;44.39;99201.91;10398557;28;20242;-66
2023/10/22 08:34:28;;;;;;;2.37;1.70;;;;;;;16.69;42.88;99103.94;10399386;28;20367;-67
2023/10/22 08:39:29;;;;;;;3.30;1.63;;;;;;;16.25;43.55;99124.13;10403364;28;20339;-66
2023/10/22 08:44:34;;;;;;;2.07;1.87;;;;;;;16.24;42.96;99245.84;10402205;28;20778;-66
2023/10/22 08:49:38;;;;;;;3.07;1.83;;;;;;;16.33;43.37;99263.38;10407762;28;20738;-66
2023/10/22 08:54:40;;;;;;;4.87;2.27;;;;;;;15.45;44.17;99235.25;10404437;28;20282;-66
2023/10/22 08:59:44;;;;;;;1.93;1.60;;;;;;;16.48;42.60;99226.94;10398459;28;20232;-67
2023/10/22 09:04:46;;;;;;;6.47;3.57;;;;;;;16.60;42.68;99227.72;10400807;28;20358;-67
2023/10/22 09:09:47;;;;;;;2.57;1.70;;;;;;;14.56;44.75;99250.03;10402622;28;20298;-66
2023/10/22 09:14:49;;;;;;;5.17;2.00;;;;;;;15.32;43.72;99319.84;10401832;28;20342;-66
2023/10/22 09:19:52;;;;;;;5.07;1.80;;;;;;;16.80;42.13;99209.25;10403642;28;20312;-67
2023/10/22 09:24:57;;;;;;;3.13;1.50;;;;;;;16.90;42.22;99200.50;10403945;28;20228;-67
2023/10/22 09:30:00;;;;;;;4.47;1.90;;;;;;;17.91;41.06;99167.41;10402446;28;20323;-66
2023/10/22 09:35:13;;;;;;;4.67;1.80;;;;;;;14.88;43.99;99295.72;10403145;28;20234;-67
2023/10/22 09:40:21;;;;;;;7.90;2.30;;;;;;;17.08;42.32;99194.13;10402171;28;20233;-67
2023/10/22 09:45:24;;;;;;;4.40;2.07;;;;;;;17.22;41.92;99223.59;10394793;28;20240;-67
2023/10/22 09:50:30;;;;;;;4.90;1.80;;;;;;;18.01;40.18;99258.78;10400732;28;20239;-67
2023/10/22 09:55:35;;;;;;;6.77;2.57;;;;;;;17.58;41.48;99246.69;10401093;28;20873;-66
2023/10/22 10:00:44;;;;;;;4.90;1.70;;;;;;;18.42;40.82;99213.38;10419566;28;20225;-67
2023/10/22 10:05:53;;;;;;;3.47;2.23;;;;;;;15.75;43.39;99208.25;10403311;28;20665;-66
2023/10/22 10:10:55;;;;;;;6.73;2.47;;;;;;;16.50;42.32;99271.56;10404276;28;20259;-67
2023/10/22 10:16:01;;;;;;;5.53;2.07;;;;;;;17.35;41.42;99255.72;10402481;28;20714;-67
2023/10/22 10:21:34;;;;;;;5.50;2.33;;;;;;;15.91;42.72;99308.44;10402127;28;20230;-67
2023/10/22 10:26:35;;;;;;;36.60;24.67;;;;;;;18.10;40.83;99186.06;10398908;28;20228;-66
2023/10/22 10:31:37;;;;;;;14.90;6.17;;;;;;;18.22;40.37;99262.63;10397907;28;20243;-66
2023/10/22 10:36:39;;;;;;;10.87;6.13;;;;;;;18.62;39.78;99280.56;10403321;28;20256;-66
2023/10/22 10:41:51;;;;;;;11.00;3.40;;;;;;;19.11;39.12;99263.53;10398938;28;20319;-66
2023/10/22 10:46:53;;;;;;;8.10;2.40;;;;;;;18.99;39.46;99190.47;10405899;28;20254;-67
2023/10/22 10:51:59;;;;;;;6.43;2.37;;;;;;;17.75;40.79;99254.00;10402791;28;20234;-66
2023/10/22 10:57:01;;;;;;;4.67;2.00;;;;;;;18.82;40.11;99171.56;10405651;28;20224;-68
2023/10/22 11:06:11;;;;;;;4.87;2.00;;;;;;;16.57;43.19;99118.31;10438980;27;21393;-66
2023/10/22 11:11:14;;;;;;;4.03;2.43;;;;;;;15.33;43.68;99213.66;10306761;28;20233;-66
2023/10/22 11:16:15;;;;;;;4.27;1.83;;;;;;;17.14;41.69;99197.75;10339410;28;20320;-65
2023/10/22 11:21:17;;;;;;;5.90;1.97;;;;;;;17.07;41.56;99160.06;10338633;28;20233;-66
2023/10/22 11:26:19;;;;;;;4.60;1.83;;;;;;;16.24;42.80;99179.16;10337002;28;20750;-66
2023/10/22 11:31:24;;;;;;;3.90;2.10;;;;;;;16.84;42.04;99170.94;10336323;28;20229;-66
2023/10/22 11:36:26;;;;;;;4.03;2.00;;;;;;;16.34;42.47;99237.19;10336952;28;20939;-66
2023/10/22 11:41:29;;;;;;;4.10;2.03;;;;;;;15.51;43.04;99262.13;10336044;28;20233;-66
2023/10/22 11:46:41;;;;;;;3.97;2.30;;;;;;;16.94;42.18;99149.53;10337507;28;20373;-65
2023/10/22 11:51:44;;;;;;;5.00;2.23;;;;;;;16.45;42.53;99225.56;10337591;28;20229;-66
2023/10/22 11:56:47;;;;;;;2.63;1.80;;;;;;;16.68;42.23;99210.34;10334906;28;20300;-66
2023/10/22 12:01:48;;;;;;;4.30;2.03;;;;;;;16.62;41.65;99237.25;10338786;28;20416;-66
2023/10/22 12:06:50;;;;;;;3.20;1.77;;;;;;;16.78;41.81;99207.84;10333918;28;20876;-66
2023/10/22 12:11:53;;;;;;;4.50;2.03;;;;;;;17.68;41.06;99214.41;10339435;28;20328;-66
2023/10/22 12:16:55;;;;;;;2.67;1.40;;;;;;;16.20;42.91;99213.09;10310299;28;20409;-66
2023/10/22 12:21:56;;;;;;;7.60;1.90;;;;;;;16.88;41.72;99181.03;10310810;28;20534;-66
2023/10/22 12:26:59;;;;;;;3.60;1.70;;;;;;;16.87;42.00;99141.56;10308955;28;20237;-66
2023/10/22 12:32:01;;;;;;;3.37;1.60;;;;;;;17.15;41.36;99200.22;10309951;28;20721;-66
2023/10/22 12:37:03;;;;;;;7.23;1.97;;;;;;;17.13;41.38;99234.78;10309083;28;20231;-66
2023/10/22 12:42:05;;;;;;;5.30;1.80;;;;;;;17.61;40.80;99231.84;10305830;28;20688;-66
2023/10/22 12:47:12;;;;;;;2.47;1.40;;;;;;;16.56;42.16;99249.00;10308545;28;20306;-66
2023/10/22 12:52:14;;;;;;;4.70;2.00;;;;;;;17.14;41.21;99268.88;10307076;28;20254;-66
2023/10/22 12:57:16;;;;;;;3.50;1.60;;;;;;;17.49;41.24;99167.81;10305732;28;20772;-66
2023/10/22 13:02:18;;;;;;;3.23;1.50;;;;;;;18.08;40.82;99226.97;10305369;28;20230;-65
2023/10/22 13:07:19;;;;;;;4.53;1.90;;;;;;;17.67;40.96;99201.94;10305001;28;20329;-66
2023/10/22 13:12:21;;;;;;;3.17;1.63;;;;;;;17.19;41.28;99232.97;10306925;28;20274;-66
2023/10/22 13:17:23;;;;;;;6.70;1.73;;;;;;;16.60;41.30;99316.88;10304400;28;20230;-66
2023/10/22 13:22:25;;;;;;;4.53;1.80;;;;;;;18.43;39.74;99262.94;10304462;28;20491;-66
2023/10/22 13:27:26;;;;;;;5.53;1.50;;;;;;;17.31;40.85;99281.63;10303229;28;20262;-67
2023/10/22 13:32:28;;;;;;;5.80;2.10;;;;;;;18.46;39.59;99228.03;10302062;28;20234;-66
2023/10/22 13:37:30;;;;;;;5.47;1.80;;;;;;;17.74;39.78;99301.91;10304205;28;20798;-66
2023/10/22 13:42:32;;;;;;;4.50;1.60;;;;;;;19.29;38.59;99237.97;10300714;28;20636;-67
2023/10/22 13:47:35;;;;;;;3.77;1.77;;;;;;;19.12;38.56;99216.38;10301989;28;20225;-66
2023/10/22 13:52:37;;;;;;;2.80;1.70;;;;;;;17.61;40.09;99275.94;10316682;28;20310;-67
2023/10/22 13:57:39;;;;;;;4.90;2.03;;;;;;;18.06;39.55;99355.50;10304375;28;20240;-67
2023/10/22 14:02:41;;;;;;;3.40;1.63;;;;;;;19.50;38.63;99236.31;10304754;28;20234;-67
2023/10/22 14:07:45;;;;;;;5.77;2.00;;;;;;;17.78;39.73;99335.53;10301414;28;20552;-67
2023/10/22 14:12:47;;;;;;;3.87;1.60;;;;;;;18.46;39.14;99227.25;10302842;28;20728;-67
2023/10/22 14:17:48;;;;;;;3.67;1.70;;;;;;;18.39;38.71;99310.53;10302045;28;20692;-66
2023/10/22 14:22:50;;;;;;;5.20;2.03;;;;;;;18.72;38.86;99231.06;10302450;28;20246;-67
2023/10/22 14:27:52;;;;;;;3.47;1.73;;;;;;;18.64;38.56;99261.31;10305713;28;20806;-68
2023/10/22 14:32:54;;;;;;;4.23;1.60;;;;;;;18.29;39.08;99313.94;10307273;28;20237;-66
2023/10/22 14:37:55;;;;;;;3.37;1.80;;;;;;;18.84;37.97;99267.03;10304500;28;20344;-66
2023/10/22 14:42:57;;;;;;;3.33;1.50;;;;;;;19.38;37.51;99268.16;10302806;28;20241;-66
2023/10/22 14:47:58;;;;;;;4.67;1.80;;;;;;;19.46;37.59;99218.88;10304018;28;20233;-65
2023/10/22 14:53:01;;;;;;;4.83;2.70;;;;;;;19.09;37.36;99349.75;10299121;28;20746;-66
2023/10/22 14:58:02;;;;;;;4.80;2.27;;;;;;;19.79;37.85;99260.47;10298943;28;20248;-66
2023/10/22 15:03:04;;;;;;;7.60;2.87;;;;;;;18.30;39.06;99337.22;10303811;28;20638;-66
2023/10/22 15:08:07;;;;;;;5.57;2.40;;;;;;;19.78;37.45;99231.66;10317004;28;20276;-65
2023/10/22 15:13:09;;;;;;;7.70;3.00;;;;;;;19.80;37.68;99245.78;10302763;28;20647;-65
2023/10/22 15:18:14;;;;;;;3.83;2.47;;;;;;;19.10;38.38;99324.28;10302120;28;20234;-65
2023/10/22 15:23:16;;;;;;;5.77;2.33;;;;;;;19.81;37.89;99260.22;10303516;28;20230;-65
2023/10/22 15:28:18;;;;;;;7.93;2.57;;;;;;;19.86;37.61;99282.78;10300867;28;20287;-66
2023/10/22 15:33:20;;;;;;;3.97;2.00;;;;;;;19.01;38.87;99342.06;10302096;28;20241;-65
2023/10/22 15:38:22;;;;;;;3.83;1.97;;;;;;;18.57;39.35;99307.56;10302674;28;20916;-65
2023/10/22 15:43:24;;;;;;;5.60;1.90;;;;;;;19.27;38.75;99259.13;10303199;28;20233;-67
2023/10/22 15:48:30;;;;;;;7.43;3.10;;;;;;;19.08;39.38;99280.34;10300935;28;20330;-67
2023/10/22 15:53:35;;;;;;;6.10;2.67;;;;;;;17.91;40.22;99367.69;10282731;28;20235;-67
2023/10/22 15:58:36;;;;;;;5.03;1.90;;;;;;;18.18;39.62;99341.88;10296682;28;20783;-71
2023/10/22 16:03:39;;;;;;;6.03;2.27;;;;;;;18.34;39.67;99278.81;10309011;28;20276;-71
2023/10/22 16:08:43;;;;;;;3.57;2.13;;;;;;;17.63;40.18;99348.75;10302715;28;20260;-70
2023/10/22 16:13:45;;;;;;;4.47;1.80;;;;;;;18.87;38.78;99254.84;10303560;28;20237;-69
2023/10/22 16:18:47;;;;;;;4.20;2.17;;;;;;;18.54;39.25;99278.28;10307548;28;20238;-68
2023/10/22 16:23:49;;;;;;;4.40;2.20;;;;;;;18.78;38.72;99291.59;10305691;28;20719;-70
2023/10/22 16:28:55;;;;;;;4.87;2.33;;;;;;;17.81;40.15;99366.69;10305667;28;20616;-67
2023/10/22 16:33:59;;;;;;;5.03;2.00;;;;;;;17.71;40.09;99353.78;10306002;28;20242;-69
2023/10/22 16:39:00;;;;;;;4.63;2.07;;;;;;;17.91;40.28;99291.09;10309515;28;20236;-68
2023/10/22 16:44:02;;;;;;;6.93;2.20;;;;;;;18.37;40.09;99253.94;10307229;28;20237;-68
2023/10/22 16:49:04;;;;;;;3.97;2.00;;;;;;;17.89;40.75;99233.69;10304439;28;20392;-68
2023/10/22 16:54:06;;;;;;;3.30;2.40;;;;;;;18.75;39.93;99246.84;10323464;28;20226;-68
2023/10/22 16:59:08;;;;;;;6.37;2.40;;;;;;;16.76;42.07;99277.53;10305506;28;20236;-68
2023/10/22 17:04:10;;;;;;;5.03;2.30;;;;;;;17.49;41.30;99267.88;10307958;28;20338;-67
2023/10/22 17:09:12;;;;;;;5.43;2.77;;;;;;;17.55;41.08;99298.56;10307623;28;20794;-73
2023/10/22 17:14:13;;;;;;;5.93;2.37;;;;;;;16.26;42.28;99394.91;10305191;28;20617;-69
2023/10/22 17:19:15;;;;;;;5.10;2.50;;;;;;;17.54;40.93;99321.25;10302510;28;20349;-70
2023/10/22 17:24:17;;;;;;;6.40;2.70;;;;;;;17.07;41.08;99359.25;10309681;28;20289;-67
2023/10/22 17:29:20;;;;;;;5.80;2.40;;;;;;;17.17;41.15;99321.63;10306090;28;20234;-67
2023/10/22 17:34:22;;;;;;;4.53;2.10;;;;;;;18.44;39.45;99281.66;10310681;28;20265;-70
2023/10/22 17:39:23;;;;;;;4.83;2.60;;;;;;;18.57;39.79;99282.38;10309227;28;20327;-70
2023/10/22 17:44:25;;;;;;;5.77;2.00;;;;;;;17.77;39.93;99400.72;10270065;28;20266;-69
2023/10/22 17:49:27;;;;;;;6.23;2.27;;;;;;;18.87;39.39;99300.91;10303592;28;20237;-70
2023/10/22 17:54:29;;;;;;;6.07;2.00;;;;;;;16.12;42.32;99388.88;10305524;28;20233;-69
2023/10/22 17:59:32;;;;;;;6.67;2.03;;;;;;;17.28;41.30;99250.47;10303301;28;20242;-69
2023/10/22 18:04:33;;;;;;;3.40;2.00;;;;;;;16.59;41.33;99361.16;10306094;28;20376;-70
2023/10/22 18:09:35;;;;;;;4.50;2.10;;;;;;;15.82;42.51;99408.59;10281674;28;21364;-70
2023/10/22 18:14:37;;;;;;;2.83;1.80;;;;;;;18.23;39.77;99323.00;10273385;28;20702;-70
2023/10/22 18:19:39;;;;;;;4.67;2.10;;;;;;;18.50;40.09;99322.38;10303656;28;20238;-70
2023/10/22 18:24:42;;;;;;;8.43;2.90;;;;;;;18.63;39.46;99376.22;10268180;28;20663;-68
2023/10/22 18:29:44;;;;;;;10.70;5.80;;;;;;;17.27;42.11;99402.13;10267185;28;20237;-66
2023/10/22 18:34:46;;;;;;;14.37;6.23;;;;;;;18.08;41.26;99337.13;10265918;28;20234;-69
2023/10/22 18:39:47;;;;;;;8.03;3.73;;;;;;;18.36;40.36;99338.97;10302083;28;20225;-69
2023/10/22 18:44:50;;;;;;;5.57;3.87;;;;;;;17.96;40.96;99420.28;10274220;28;20241;-68
2023/10/22 18:49:51;;;;;;;6.27;3.83;;;;;;;16.11;44.82;99419.63;10305096;28;20280;-68
2023/10/22 18:54:53;;;;;;;10.43;5.53;;;;;;;17.38;43.15;99303.94;10303705;28;20233;-69
2023/10/22 18:59:55;;;;;;;8.87;4.93;;;;;;;17.87;41.84;99393.59;10303405;28;20743;-66
2023/10/22 19:04:57;;;;;;;10.17;5.60;;;;;;;17.84;41.91;99394.09;10304015;28;20325;-70
2023/10/22 19:09:59;;;;;;;8.83;4.40;;;;;;;18.20;41.54;99381.19;10300695;28;20261;-70
2023/10/22 19:15:01;;;;;;;7.23;3.67;;;;;;;18.36;41.34;99376.06;10306682;28;20222;-70
2023/10/22 19:20:07;;;;;;;6.50;3.40;;;;;;;18.56;40.98;99359.31;10303552;28;20233;-70
2023/10/22 19:25:09;;;;;;;9.13;3.40;;;;;;;18.22;41.87;99373.66;10305771;28;20715;-70
2023/10/22 19:30:12;;;;;;;5.37;3.57;;;;;;;17.84;42.02;99406.81;10312746;28;20214;-70
2023/10/22 19:35:15;;;;;;;5.13;3.50;;;;;;;17.86;41.63;99391.94;10324824;28;20237;-68
2023/10/22 19:40:16;;;;;;;5.43;3.00;;;;;;;17.99;41.70;99395.44;10313349;28;20221;-69
2023/10/22 19:45:19;;;;;;;10.20;3.53;;;;;;;16.77;43.64;99342.13;10309860;28;20739;-69
2023/10/22 19:50:20;;;;;;;6.90;3.23;;;;;;;17.31;42.43;99431.16;10309019;28;20691;-69
2023/10/22 19:55:24;;;;;;;4.80;2.40;;;;;;;16.74;42.67;99458.75;10268258;28;20332;-69
2023/10/22 20:00:25;;;;;;;2.93;2.60;;;;;;;17.78;41.72;99415.88;10267354;28;20266;-69
2023/10/22 20:05:37;;;;;;;4.67;3.53;;;;;;;17.04;43.53;99376.78;10273027;28;20241;-69
2023/10/22 20:10:41;;;;;;;10.13;4.27;;;;;;;16.05;45.09;99313.41;10309591;28;20271;-70
2023/10/22 20:15:47;;;;;;;7.57;3.43;;;;;;;17.92;41.56;99419.94;10307880;28;20857;-68
2023/10/22 20:20:48;;;;;;;8.63;3.13;;;;;;;18.09;41.19;99442.47;10307213;28;20300;-68
2023/10/22 20:25:50;;;;;;;6.97;3.30;;;;;;;18.21;41.15;99395.56;10322448;28;20603;-68
2023/10/22 20:30:52;;;;;;;5.00;3.60;;;;;;;17.31;42.30;99470.91;10311720;28;20241;-68
2023/10/22 20:35:54;;;;;;;6.20;3.20;;;;;;;16.69;43.64;99425.41;10305998;28;20665;-68
2023/10/22 20:41:03;;;;;;;3.80;3.00;;;;;;;15.80;44.85;99490.81;10310161;28;20761;-68
2023/10/22 20:46:06;;;;;;;5.97;3.40;;;;;;;18.40;41.09;99399.69;10307708;28;20265;-68
2023/10/22 20:51:13;;;;;;;6.43;2.90;;;;;;;16.88;43.01;99496.38;10306159;28;20230;-68
2023/10/22 20:56:15;;;;;;;5.30;2.93;;;;;;;17.66;41.94;99461.91;10308406;28;20345;-69
2023/10/22 21:01:20;;;;;;;5.70;3.17;;;;;;;16.33;43.80;99503.66;10306060;28;20252;-68
2023/10/22 21:06:22;;;;;;;4.17;3.00;;;;;;;15.53;45.45;99442.56;10307830;28;20234;-68
2023/10/22 21:11:24;;;;;;;5.90;3.03;;;;;;;15.82;45.23;99351.94;10307565;28;20230;-68
2023/10/22 21:16:26;;;;;;;5.07;2.80;;;;;;;14.86;46.13;99442.41;10305145;28;20249;-68
2023/10/22 21:21:28;;;;;;;8.33;2.93;;;;;;;14.78;46.84;99430.03;10307301;28;20237;-68
2023/10/22 21:26:30;;;;;;;5.40;2.93;;;;;;;15.55;45.42;99356.06;10309672;28;20725;-68
2023/10/22 21:31:32;;;;;;;3.23;2.70;;;;;;;16.71;44.01;99351.16;10305610;28;20240;-68
2023/10/22 21:36:35;;;;;;;4.50;2.90;;;;;;;15.74;44.77;99424.28;10309469;28;20818;-68
2023/10/22 21:41:36;;;;;;;4.27;3.30;;;;;;;17.02;43.28;99402.41;10306758;28;20226;-67
2023/10/22 21:46:38;;;;;;;7.40;3.20;;;;;;;17.17;42.43;99427.91;10301356;28;20900;-68
2023/10/22 21:51:40;;;;;;;6.60;3.20;;;;;;;16.17;43.41;99512.34;10306642;28;20230;-68
2023/10/22 21:56:42;;;;;;;5.23;3.13;;;;;;;15.75;44.78;99424.06;10307200;28;20238;-68
2023/10/22 22:01:44;;;;;;;5.20;3.17;;;;;;;15.80;44.45;99453.88;10306132;28;20237;-68
2023/10/22 22:06:47;;;;;;;4.43;2.80;;;;;;;15.63;45.16;99378.16;10305450;28;20238;-68
2023/10/22 22:11:48;;;;;;;5.00;2.90;;;;;;;15.10;45.64;99449.66;10305642;28;20233;-68
2023/10/22 22:16:50;;;;;;;3.93;2.70;;;;;;;16.19;43.74;99408.47;10306970;28;20241;-68
2023/10/22 22:21:52;;;;;;;4.10;2.80;;;;;;;15.88;44.36;99412.28;10305566;28;20732;-68
2023/10/22 22:26:53;;;;;;;3.90;2.67;;;;;;;15.85;43.71;99456.72;10304405;28;20242;-68
2023/10/22 22:31:55;;;;;;;4.80;2.60;;;;;;;16.81;42.00;99462.16;10307561;28;20319;-68
2023/10/22 22:36:57;;;;;;;4.47;2.93;;;;;;;15.81;43.68;99465.50;10301011;28;20635;-68
2023/10/22 22:41:58;;;;;;;5.10;2.90;;;;;;;16.53;42.36;99473.63;10302884;28;20236;-68
2023/10/22 22:47:00;;;;;;;6.60;2.83;;;;;;;15.41;44.41;99429.00;10304645;28;20716;-68
2023/10/22 22:52:02;;;;;;;4.80;2.97;;;;;;;16.33;43.09;99416.41;10306883;28;20226;-68
2023/10/22 22:57:04;;;;;;;2.57;2.37;;;;;;;15.79;43.61;99492.69;10297716;28;20349;-68
2023/10/22 23:02:06;;;;;;;6.27;2.70;;;;;;;16.63;42.62;99402.84;10305463;28;20610;-68
2023/10/22 23:07:08;;;;;;;4.77;2.60;;;;;;;16.08;42.85;99536.16;10307224;28;20240;-68
2023/10/22 23:12:10;;;;;;;4.40;2.47;;;;;;;15.97;43.19;99494.53;10306170;28;20227;-68
2023/10/22 23:17:12;;;;;;;5.17;2.80;;;;;;;16.93;41.82;99443.25;10308642;28;20226;-68
2023/10/22 23:22:13;;;;;;;4.80;2.40;;;;;;;16.39;42.58;99500.00;10305439;28;20615;-68
2023/10/22 23:27:15;;;;;;;6.70;2.70;;;;;;;14.80;44.67;99559.94;10303445;28;20620;-68